Time;durP1;ratioP1;P1;durP2;ratioP2;P2;SDS_P1;SDS_P2;PMS_P1;PMS_P2;Temp;Humidity;BMP_temperature;BMP_pressure;BME280_temperature;BME280_humidity;BME280_pressure;Samples;Min_cycle;Max_cycle;Signal;HPM_P1;HPM_P2
2023/07/03 00:00:38;;;;;;;1.70;1.65;;;;;;;;;;4165293;28;20048;-85
2023/07/03 00:02:58;;;;;;;1.30;1.20;;;;;;;;;;4160382;28;20064;-85
2023/07/03 00:05:20;;;;;;;1.95;1.42;;;;;;;;;;4163145;28;20391;-85
2023/07/03 00:07:41;;;;;;;1.70;1.60;;;;;;;;;;4158128;28;20344;-84
2023/07/03 00:10:01;;;;;;;1.70;1.65;;;;;;;;;;4142698;28;20057;-86
2023/07/03 00:12:21;;;;;;;1.55;1.40;;;;;;;;;;4156016;28;20136;-85
2023/07/03 00:14:42;;;;;;;3.25;1.38;;;;;;;;;;4163411;28;20057;-86
2023/07/03 00:17:02;;;;;;;2.58;1.83;;;;;;;;;;4160921;28;20048;-84
2023/07/03 00:19:26;;;;;;;3.45;1.35;;;;;;;;;;4159529;28;20044;-85
2023/07/03 00:21:48;;;;;;;2.72;1.58;;;;;;;;;;4157086;28;20049;-84
2023/07/03 00:24:10;;;;;;;1.38;1.38;;;;;;;;;;4157059;28;20045;-84
2023/07/03 00:26:30;;;;;;;2.00;1.90;;;;;;;;;;4156276;28;20049;-85
2023/07/03 00:28:51;;;;;;;2.50;2.30;;;;;;;;;;4155078;28;20100;-85
2023/07/03 00:31:11;;;;;;;2.08;1.80;;;;;;;;;;4145615;28;20049;-79
2023/07/03 00:33:31;;;;;;;2.25;2.15;;;;;;;;;;4159414;28;20100;-79
2023/07/03 00:35:51;;;;;;;1.92;1.83;;;;;;;;;;4157234;28;20107;-79
2023/07/03 00:38:12;;;;;;;1.63;1.52;;;;;;;;;;4142315;28;20081;-79
2023/07/03 00:40:32;;;;;;;1.63;1.48;;;;;;;;;;4155762;28;20117;-79
2023/07/03 00:42:53;;;;;;;1.58;1.50;;;;;;;;;;4157779;28;20277;-79
2023/07/03 00:45:14;;;;;;;1.92;1.83;;;;;;;;;;4156521;28;20060;-79
2023/07/03 00:47:34;;;;;;;5.68;1.55;;;;;;;;;;4158511;28;20085;-79
2023/07/03 00:49:54;;;;;;;1.67;1.58;;;;;;;;;;4153289;28;20245;-80
2023/07/03 00:52:15;;;;;;;1.83;1.70;;;;;;;;;;4159128;28;20116;-79
2023/07/03 00:54:35;;;;;;;3.78;1.40;;;;;;;;;;4156664;28;20068;-79
2023/07/03 00:56:56;;;;;;;1.52;1.40;;;;;;;;;;4155420;28;20145;-79
2023/07/03 00:59:17;;;;;;;1.50;1.48;;;;;;;;;;4156380;28;20110;-79
2023/07/03 01:01:57;;;;;;;1.92;1.85;;;;;;;;;;4156882;28;20057;-81
2023/07/03 01:04:40;;;;;;;1.30;1.20;;;;;;;;;;4154639;23;20309;-58
2023/07/03 01:07:02;;;;;;;1.85;1.85;;;;;;;;;;4134023;28;20056;-58
2023/07/03 01:09:25;;;;;;;3.60;1.50;;;;;;;;;;4130562;28;20085;-58
2023/07/03 01:11:47;;;;;;;2.67;1.48;;;;;;;;;;4126851;28;20057;-58
2023/07/03 01:14:08;;;;;;;2.65;1.23;;;;;;;;;;4122564;28;20407;-58
2023/07/03 01:16:30;;;;;;;1.60;1.60;;;;;;;;;;4121493;28;20054;-58
2023/07/03 01:18:53;;;;;;;1.85;1.50;;;;;;;;;;4135902;28;20066;-58
2023/07/03 01:21:24;;;;;;;1.80;1.70;;;;;;;;;;4132167;28;20292;-58
2023/07/03 01:24:09;;;;;;;1.58;1.58;;;;;;;;;;4129848;28;20081;-58
2023/07/03 01:26:30;;;;;;;1.50;1.40;;;;;;;;;;4124882;28;20049;-59
2023/07/03 01:28:52;;;;;;;5.88;1.50;;;;;;;;;;4123381;28;20045;-58
2023/07/03 01:31:14;;;;;;;2.10;1.17;;;;;;;;;;4122738;28;20077;-58
2023/07/03 01:33:40;;;;;;;3.20;1.40;;;;;;;;;;4130876;28;20635;-58
2023/07/03 01:36:00;;;;;;;2.15;1.48;;;;;;;;;;4131100;28;20080;-58
2023/07/03 01:38:21;;;;;;;1.90;1.77;;;;;;;;;;4127278;28;20054;-58
2023/07/03 01:40:41;;;;;;;1.75;1.75;;;;;;;;;;4123715;28;20049;-58
2023/07/03 01:43:02;;;;;;;2.08;1.85;;;;;;;;;;4126547;28;20049;-58
2023/07/03 01:45:22;;;;;;;2.05;1.40;;;;;;;;;;4126822;28;20050;-58
2023/07/03 01:47:43;;;;;;;1.40;1.40;;;;;;;;;;4124860;28;20140;-58
2023/07/03 01:50:08;;;;;;;1.73;1.73;;;;;;;;;;4130107;28;20057;-57
2023/07/03 01:52:35;;;;;;;1.70;1.58;;;;;;;;;;4125014;28;20058;-57
2023/07/03 01:55:02;;;;;;;1.73;1.60;;;;;;;;;;4124391;28;20090;-58
2023/07/03 01:57:33;;;;;;;2.33;1.85;;;;;;;;;;4127833;28;20049;-58
2023/07/03 01:59:54;;;;;;;2.13;2.03;;;;;;;;;;4126906;28;20074;-58
2023/07/03 02:02:16;;;;;;;2.17;1.42;;;;;;;;;;4124372;28;20054;-58
2023/07/03 02:04:52;;;;;;;7.70;1.58;;;;;;;;;;4126255;28;20079;-58
2023/07/03 02:07:13;;;;;;;4.32;2.67;;;;;;;;;;4122699;28;20114;-58
2023/07/03 02:09:36;;;;;;;1.98;1.67;;;;;;;;;;4132692;28;20093;-58
2023/07/03 02:11:56;;;;;;;1.52;1.42;;;;;;;;;;4131830;28;20056;-58
2023/07/03 02:14:17;;;;;;;1.70;1.50;;;;;;;;;;4129444;28;20061;-58
2023/07/03 02:16:38;;;;;;;1.50;1.50;;;;;;;;;;4126761;28;20053;-58
2023/07/03 02:18:59;;;;;;;1.45;1.35;;;;;;;;;;4124190;28;20082;-58
2023/07/03 02:21:19;;;;;;;1.40;1.30;;;;;;;;;;4124498;28;20258;-58
2023/07/03 02:23:40;;;;;;;3.65;1.67;;;;;;;;;;4136161;28;20109;-58
2023/07/03 02:26:00;;;;;;;1.80;1.70;;;;;;;;;;4132231;28;20473;-58
2023/07/03 02:28:20;;;;;;;1.40;1.40;;;;;;;;;;4130162;28;20078;-58
2023/07/03 02:30:40;;;;;;;1.52;1.52;;;;;;;;;;4128867;28;20187;-58
2023/07/03 02:33:01;;;;;;;1.95;1.85;;;;;;;;;;4124752;28;20081;-58
2023/07/03 02:35:21;;;;;;;2.40;2.20;;;;;;;;;;4123699;28;20054;-58
2023/07/03 02:37:41;;;;;;;1.98;1.88;;;;;;;;;;4136402;28;20081;-58
2023/07/03 02:40:01;;;;;;;2.40;2.30;;;;;;;;;;4133072;28;20061;-58
2023/07/03 02:42:21;;;;;;;2.22;2.17;;;;;;;;;;4129155;28;20154;-58
2023/07/03 02:44:41;;;;;;;1.80;1.80;;;;;;;;;;4125597;28;20053;-58
2023/07/03 02:47:02;;;;;;;2.85;2.15;;;;;;;;;;4122089;28;20070;-58
2023/07/03 02:49:23;;;;;;;2.30;2.10;;;;;;;;;;4125023;28;20061;-57
2023/07/03 02:51:44;;;;;;;2.00;1.92;;;;;;;;;;4129059;28;20229;-58
2023/07/03 02:54:05;;;;;;;4.03;2.80;;;;;;;;;;4132386;28;20053;-58
2023/07/03 02:56:25;;;;;;;1.98;1.88;;;;;;;;;;4131972;28;20130;-58
2023/07/03 02:58:46;;;;;;;2.03;1.92;;;;;;;;;;4129910;28;20360;-57
2023/07/03 03:01:06;;;;;;;4.03;3.20;;;;;;;;;;4126094;28;20053;-58
2023/07/03 03:03:26;;;;;;;2.33;2.13;;;;;;;;;;4128334;28;20069;-58
2023/07/03 03:05:47;;;;;;;2.88;2.05;;;;;;;;;;4127209;28;20038;-58
2023/07/03 03:08:08;;;;;;;2.42;2.17;;;;;;;;;;4130543;28;20282;-58
2023/07/03 03:10:28;;;;;;;2.45;1.80;;;;;;;;;;4130931;28;20053;-58
2023/07/03 03:12:48;;;;;;;2.03;1.50;;;;;;;;;;4127131;28;20129;-58
2023/07/03 03:15:08;;;;;;;2.03;1.92;;;;;;;;;;4129806;28;20050;-58
2023/07/03 03:17:30;;;;;;;2.10;2.00;;;;;;;;;;4129111;28;20054;-58
2023/07/03 03:19:50;;;;;;;2.67;2.08;;;;;;;;;;4129145;28;20081;-58
2023/07/03 03:22:10;;;;;;;1.88;1.77;;;;;;;;;;4126833;28;20057;-58
2023/07/03 03:24:31;;;;;;;2.35;1.77;;;;;;;;;;4127569;28;20082;-58
2023/07/03 03:26:51;;;;;;;2.05;1.95;;;;;;;;;;4127018;28;20045;-59
2023/07/03 03:29:11;;;;;;;2.25;2.00;;;;;;;;;;4135056;28;20061;-58
2023/07/03 03:31:31;;;;;;;1.90;1.80;;;;;;;;;;4132156;28;20403;-58
2023/07/03 03:33:52;;;;;;;1.88;1.77;;;;;;;;;;4129553;28;20054;-58
2023/07/03 03:36:13;;;;;;;1.50;1.50;;;;;;;;;;4127876;28;20134;-58
2023/07/03 03:38:33;;;;;;;2.95;1.80;;;;;;;;;;4125808;28;20058;-58
2023/07/03 03:40:55;;;;;;;3.17;1.80;;;;;;;;;;4128140;28;20053;-58
2023/07/03 03:43:15;;;;;;;1.58;1.58;;;;;;;;;;4135718;28;20090;-58
2023/07/03 03:45:35;;;;;;;2.47;1.60;;;;;;;;;;4131974;28;20077;-58
2023/07/03 03:47:56;;;;;;;1.60;1.60;;;;;;;;;;4128876;28;20066;-58
2023/07/03 03:50:17;;;;;;;1.88;1.77;;;;;;;;;;4129713;28;20049;-59
2023/07/03 03:52:37;;;;;;;2.45;2.25;;;;;;;;;;4125546;28;20106;-58
2023/07/03 03:54:58;;;;;;;3.90;2.30;;;;;;;;;;4131435;28;20060;-58
2023/07/03 03:57:19;;;;;;;2.20;2.10;;;;;;;;;;4138070;28;20046;-58
2023/07/03 03:59:39;;;;;;;2.85;2.63;;;;;;;;;;4134391;28;20057;-58
2023/07/03 04:02:00;;;;;;;1.98;1.85;;;;;;;;;;4130507;28;20053;-58
2023/07/03 04:04:21;;;;;;;2.65;1.92;;;;;;;;;;4126884;28;20054;-58
2023/07/03 04:06:43;;;;;;;2.42;2.33;;;;;;;;;;4125431;28;20041;-58
2023/07/03 04:09:03;;;;;;;1.77;1.70;;;;;;;;;;4126654;28;20046;-58
2023/07/03 04:11:24;;;;;;;2.35;2.33;;;;;;;;;;4133199;28;20117;-59
2023/07/03 04:13:44;;;;;;;2.38;2.10;;;;;;;;;;4134230;28;20367;-58
2023/07/03 04:16:04;;;;;;;2.30;1.85;;;;;;;;;;4131592;28;20126;-58
2023/07/03 04:18:25;;;;;;;3.10;1.90;;;;;;;;;;4128501;28;20049;-59
2023/07/03 04:20:46;;;;;;;2.67;2.08;;;;;;;;;;4125728;28;20114;-58
2023/07/03 04:23:06;;;;;;;2.42;2.30;;;;;;;;;;4126424;28;20049;-58
2023/07/03 04:25:26;;;;;;;2.17;2.05;;;;;;;;;;4124896;28;20122;-58
2023/07/03 04:27:47;;;;;;;2.60;2.40;;;;;;;;;;4133135;28;20053;-58
2023/07/03 04:30:07;;;;;;;2.70;2.15;;;;;;;;;;4129078;28;20054;-58
2023/07/03 04:32:28;;;;;;;3.17;2.17;;;;;;;;;;4125653;28;20049;-58
2023/07/03 04:34:49;;;;;;;2.30;2.20;;;;;;;;;;4127693;28;20113;-59
2023/07/03 04:37:09;;;;;;;1.77;1.75;;;;;;;;;;4126739;28;20046;-59
2023/07/03 04:39:30;;;;;;;1.70;1.60;;;;;;;;;;4127294;28;20049;-58
2023/07/03 04:41:50;;;;;;;3.40;2.45;;;;;;;;;;4124806;28;20082;-59
2023/07/03 04:44:12;;;;;;;6.40;3.05;;;;;;;;;;4128640;28;20050;-59
2023/07/03 04:46:33;;;;;;;2.05;2.03;;;;;;;;;;4125839;28;20102;-58
2023/07/03 04:48:59;;;;;;;3.22;2.72;;;;;;;;;;4133116;28;20052;-59
2023/07/03 04:51:20;;;;;;;4.97;2.42;;;;;;;;;;4130332;28;20050;-59
2023/07/03 04:53:41;;;;;;;2.28;2.00;;;;;;;;;;4130359;28;20093;-59
2023/07/03 04:56:01;;;;;;;3.08;2.28;;;;;;;;;;4125985;28;20050;-59
2023/07/03 04:58:22;;;;;;;3.97;3.33;;;;;;;;;;4125811;28;20428;-58
2023/07/03 05:00:42;;;;;;;2.50;2.30;;;;;;;;;;4127750;28;20252;-59
2023/07/03 05:03:03;;;;;;;5.45;2.42;;;;;;;;;;4133947;28;20053;-59
2023/07/03 05:05:24;;;;;;;3.22;3.13;;;;;;;;;;4131789;28;20065;-59
2023/07/03 05:07:45;;;;;;;4.45;2.50;;;;;;;;;;4128906;28;20050;-59
2023/07/03 05:10:05;;;;;;;4.22;2.50;;;;;;;;;;4128160;28;20107;-59
2023/07/03 05:12:25;;;;;;;4.03;2.47;;;;;;;;;;4125338;28;20077;-58
2023/07/03 05:14:46;;;;;;;5.20;2.97;;;;;;;;;;4131865;28;20057;-59
2023/07/03 05:17:06;;;;;;;4.40;2.15;;;;;;;;;;4132386;28;20241;-58
2023/07/03 05:19:26;;;;;;;2.30;2.20;;;;;;;;;;4133843;28;20144;-58
2023/07/03 05:21:47;;;;;;;5.15;1.90;;;;;;;;;;4129949;28;20040;-58
2023/07/03 05:24:07;;;;;;;2.22;2.03;;;;;;;;;;4126167;28;20101;-58
2023/07/03 05:26:27;;;;;;;2.10;1.90;;;;;;;;;;4122386;28;20074;-58
2023/07/03 05:28:47;;;;;;;2.40;2.20;;;;;;;;;;4124639;28;20053;-58
2023/07/03 05:31:07;;;;;;;3.13;3.03;;;;;;;;;;4135329;28;20041;-58
2023/07/03 05:33:28;;;;;;;2.85;2.67;;;;;;;;;;4132233;28;20170;-58
2023/07/03 05:35:49;;;;;;;3.10;3.00;;;;;;;;;;4130076;28;20045;-58
2023/07/03 05:38:12;;;;;;;2.72;2.47;;;;;;;;;;4126449;28;20046;-58
2023/07/03 05:40:33;;;;;;;2.45;2.30;;;;;;;;;;4125166;28;20038;-58
2023/07/03 05:42:53;;;;;;;2.38;2.20;;;;;;;;;;4126803;28;20395;-58
2023/07/03 05:45:13;;;;;;;2.00;1.90;;;;;;;;;;4127188;28;20110;-58
2023/07/03 05:47:35;;;;;;;1.25;1.25;;;;;;;;;;4132049;28;20050;-58
2023/07/03 05:49:57;;;;;;;1.60;1.40;;;;;;;;;;4128930;28;20058;-58
2023/07/03 05:52:17;;;;;;;2.38;1.75;;;;;;;;;;4125084;28;20395;-58
2023/07/03 05:54:38;;;;;;;3.72;2.20;;;;;;;;;;4126302;28;20065;-58
2023/07/03 05:56:58;;;;;;;1.83;1.83;;;;;;;;;;4125328;28;20060;-58
2023/07/03 05:59:18;;;;;;;1.67;1.58;;;;;;;;;;4124778;28;20050;-58
2023/07/03 06:01:38;;;;;;;1.90;1.80;;;;;;;;;;4129647;28;20284;-59
2023/07/03 06:03:59;;;;;;;2.63;1.40;;;;;;;;;;4126441;28;20277;-58
2023/07/03 06:06:20;;;;;;;1.80;1.65;;;;;;;;;;4123247;28;20054;-58
2023/07/03 06:08:41;;;;;;;1.40;1.30;;;;;;;;;;4128280;28;20053;-58
2023/07/03 06:11:01;;;;;;;1.65;1.55;;;;;;;;;;4129111;28;20058;-58
2023/07/03 06:13:22;;;;;;;2.50;1.67;;;;;;;;;;4125304;28;20081;-58
2023/07/03 06:15:42;;;;;;;1.42;1.40;;;;;;;;;;4124008;28;20058;-58
2023/07/03 06:18:02;;;;;;;1.52;1.30;;;;;;;;;;4126668;28;20053;-58
2023/07/03 06:20:23;;;;;;;2.17;1.73;;;;;;;;;;4126332;28;20085;-59
2023/07/03 06:22:43;;;;;;;3.45;1.50;;;;;;;;;;4131818;28;20360;-58
2023/07/03 06:25:06;;;;;;;1.70;1.42;;;;;;;;;;4129208;28;20093;-58
2023/07/03 06:27:26;;;;;;;;;;;;;;;;;;4128051;28;20050;-58
2023/07/03 06:29:46;;;;;;;2.22;2.08;;;;;;;;;;4126269;28;19972;-58
2023/07/03 06:32:07;;;;;;;1.40;1.30;;;;;;;;;;4125876;28;20050;-58
2023/07/03 06:34:28;;;;;;;1.60;1.52;;;;;;;;;;4133767;28;20294;-58
2023/07/03 06:36:49;;;;;;;1.90;1.45;;;;;;;;;;4134052;28;20131;-58
2023/07/03 06:39:09;;;;;;;1.45;1.45;;;;;;;;;;4130943;28;20089;-58
2023/07/03 06:41:31;;;;;;;1.60;1.30;;;;;;;;;;4132625;28;20378;-58
2023/07/03 06:43:52;;;;;;;2.03;1.20;;;;;;;;;;4127451;28;20444;-58
2023/07/03 06:46:13;;;;;;;1.10;1.10;;;;;;;;;;4124727;28;20042;-58
2023/07/03 06:48:33;;;;;;;1.27;1.10;;;;;;;;;;4130585;28;20061;-58
2023/07/03 06:51:01;;;;;;;1.40;1.10;;;;;;;;;;4136763;28;20368;-58
2023/07/03 06:53:21;;;;;;;1.00;1.00;;;;;;;;;;4133932;28;20061;-58
2023/07/03 06:55:41;;;;;;;1.42;1.33;;;;;;;;;;4130106;28;20041;-58
2023/07/03 06:58:02;;;;;;;1.10;1.00;;;;;;;;;;4126359;28;20081;-58
2023/07/03 07:00:23;;;;;;;1.10;1.10;;;;;;;;;;4124496;28;20057;-59
2023/07/03 07:02:43;;;;;;;1.10;1.10;;;;;;;;;;4126845;28;20086;-58
2023/07/03 07:05:03;;;;;;;1.20;1.10;;;;;;;;;;4135780;28;20145;-58
2023/07/03 07:07:24;;;;;;;1.15;1.15;;;;;;;;;;4133118;28;20049;-58
2023/07/03 07:09:44;;;;;;;1.00;1.00;;;;;;;;;;4130506;28;20460;-58
2023/07/03 07:12:05;;;;;;;2.97;1.17;;;;;;;;;;4127715;28;20388;-59
2023/07/03 07:14:25;;;;;;;1.00;1.00;;;;;;;;;;4128440;28;20049;-58
2023/07/03 07:16:46;;;;;;;2.20;0.90;;;;;;;;;;4127073;28;20054;-58
2023/07/03 07:19:07;;;;;;;1.30;1.30;;;;;;;;;;4125836;28;20273;-58
2023/07/03 07:21:30;;;;;;;1.45;1.10;;;;;;;;;;4132534;28;20082;-58
2023/07/03 07:23:51;;;;;;;1.60;0.95;;;;;;;;;;4128929;28;20241;-58
2023/07/03 07:26:11;;;;;;;1.00;1.00;;;;;;;;;;4125203;28;20412;-58
2023/07/03 07:28:32;;;;;;;1.63;1.52;;;;;;;;;;4130343;28;20049;-58
2023/07/03 07:30:52;;;;;;;1.48;1.02;;;;;;;;;;4128141;28;20089;-59
2023/07/03 07:33:12;;;;;;;1.20;1.10;;;;;;;;;;4127358;28;20449;-58
2023/07/03 07:35:35;;;;;;;5.90;1.48;;;;;;;;;;4126834;28;20053;-59
2023/07/03 07:37:55;;;;;;;2.00;1.00;;;;;;;;;;4126551;28;20089;-59
2023/07/03 07:40:16;;;;;;;1.88;1.10;;;;;;;;;;4127466;28;20093;-59
2023/07/03 07:42:37;;;;;;;1.10;1.00;;;;;;;;;;4128462;28;20085;-59
2023/07/03 07:44:57;;;;;;;1.40;1.10;;;;;;;;;;4131475;28;20085;-59
2023/07/03 07:47:17;;;;;;;1.00;1.00;;;;;;;;;;4128123;28;20253;-59
2023/07/03 07:49:39;;;;;;;1.20;1.20;;;;;;;;;;4126354;28;20050;-58
2023/07/03 07:52:00;;;;;;;0.80;0.80;;;;;;;;;;4126415;28;20066;-58
2023/07/03 07:54:20;;;;;;;1.10;1.00;;;;;;;;;;4137084;28;20045;-58
2023/07/03 07:56:40;;;;;;;1.67;0.90;;;;;;;;;;4134753;28;20052;-59
2023/07/03 07:59:01;;;;;;;1.00;1.00;;;;;;;;;;4132074;28;20049;-59
2023/07/03 08:01:21;;;;;;;1.02;0.93;;;;;;;;;;4128896;28;20058;-59
2023/07/03 08:03:42;;;;;;;1.20;1.10;;;;;;;;;;4128207;28;20053;-59
2023/07/03 08:06:04;;;;;;;1.20;1.05;;;;;;;;;;4125781;28;20053;-59
2023/07/03 08:08:26;;;;;;;4.85;1.00;;;;;;;;;;4135566;28;20242;-59
2023/07/03 08:10:53;;;;;;;3.10;0.93;;;;;;;;;;4136275;28;20053;-59
2023/07/03 08:13:14;;;;;;;1.95;0.82;;;;;;;;;;4131180;28;20058;-58
2023/07/03 08:15:34;;;;;;;1.60;1.00;;;;;;;;;;4130583;28;20094;-59
2023/07/03 08:17:54;;;;;;;1.05;0.80;;;;;;;;;;4126547;28;20082;-59
2023/07/03 08:20:15;;;;;;;0.80;0.80;;;;;;;;;;4124680;28;20110;-59
2023/07/03 08:22:35;;;;;;;3.60;0.80;;;;;;;;;;4127404;28;20253;-58
2023/07/03 08:24:56;;;;;;;0.80;0.80;;;;;;;;;;4134880;28;20441;-59
2023/07/03 08:27:16;;;;;;;0.90;0.90;;;;;;;;;;4130979;28;20084;-59
2023/07/03 08:29:36;;;;;;;0.82;0.82;;;;;;;;;;4127304;28;20050;-58
2023/07/03 08:31:56;;;;;;;1.35;0.90;;;;;;;;;;4123927;28;20061;-60
2023/07/03 08:34:17;;;;;;;0.80;0.80;;;;;;;;;;4125696;28;20241;-59
2023/07/03 08:36:38;;;;;;;2.30;0.80;;;;;;;;;;4125752;28;20383;-58
2023/07/03 08:39:02;;;;;;;2.30;0.90;;;;;;;;;;4132344;28;20153;-59
2023/07/03 08:41:23;;;;;;;1.15;1.05;;;;;;;;;;4128946;28;20074;-58
2023/07/03 08:43:46;;;;;;;1.52;0.80;;;;;;;;;;4127510;28;20245;-59
2023/07/03 08:46:27;;;;;;;4.03;1.00;;;;;;;;;;4125930;28;20042;-59
2023/07/03 08:48:49;;;;;;;0.80;0.80;;;;;;;;;;4128528;28;20053;-59
2023/07/03 08:51:12;;;;;;;0.95;0.90;;;;;;;;;;4125851;28;20050;-59
2023/07/03 08:53:38;;;;;;;0.75;0.75;;;;;;;;;;4124542;28;20057;-59
2023/07/03 08:56:01;;;;;;;1.05;0.80;;;;;;;;;;4127723;28;20058;-59
2023/07/03 08:58:22;;;;;;;1.98;0.90;;;;;;;;;;4126230;28;20050;-59
2023/07/03 09:01:04;;;;;;;1.85;0.90;;;;;;;;;;4132548;28;20045;-58
2023/07/03 09:03:27;;;;;;;1.15;0.80;;;;;;;;;;4129710;28;20140;-59
2023/07/03 09:05:50;;;;;;;2.35;0.80;;;;;;;;;;4126997;28;20249;-58
2023/07/03 09:08:14;;;;;;;1.20;1.08;;;;;;;;;;4126245;28;20086;-59
2023/07/03 09:10:46;;;;;;;1.75;0.90;;;;;;;;;;4125719;28;20341;-59
2023/07/03 09:13:07;;;;;;;1.15;1.05;;;;;;;;;;4130306;28;20090;-59
2023/07/03 09:15:29;;;;;;;1.48;0.90;;;;;;;;;;4134283;28;20076;-58
2023/07/03 09:17:50;;;;;;;0.80;0.80;;;;;;;;;;4131386;28;20061;-59
2023/07/03 09:20:12;;;;;;;0.90;0.90;;;;;;;;;;4129178;28;20237;-59
2023/07/03 09:22:39;;;;;;;1.17;1.08;;;;;;;;;;4126573;28;20046;-58
2023/07/03 09:25:01;;;;;;;1.55;1.00;;;;;;;;;;4124606;28;20090;-59
2023/07/03 09:27:22;;;;;;;0.80;0.80;;;;;;;;;;4137875;28;20057;-59
2023/07/03 09:29:43;;;;;;;0.90;0.90;;;;;;;;;;4135480;28;20116;-59
2023/07/03 09:32:05;;;;;;;0.80;0.80;;;;;;;;;;4132288;28;20055;-59
2023/07/03 09:34:27;;;;;;;0.88;0.88;;;;;;;;;;4129489;28;20070;-59
2023/07/03 09:36:58;;;;;;;0.85;0.80;;;;;;;;;;4126269;28;20090;-59
2023/07/03 09:39:19;;;;;;;2.92;1.30;;;;;;;;;;4122016;28;20042;-59
2023/07/03 09:41:40;;;;;;;1.00;1.00;;;;;;;;;;4127295;28;20054;-58
2023/07/03 09:44:05;;;;;;;1.70;0.80;;;;;;;;;;4133843;28;20296;-59
2023/07/03 09:46:29;;;;;;;3.33;1.17;;;;;;;;;;4131331;28;20049;-58
2023/07/03 09:48:50;;;;;;;1.67;0.98;;;;;;;;;;4126762;28;20089;-58
2023/07/03 09:51:18;;;;;;;0.95;0.90;;;;;;;;;;4123135;28;20478;-58
2023/07/03 09:53:40;;;;;;;1.23;0.85;;;;;;;;;;4124838;28;20089;-59
2023/07/03 09:56:03;;;;;;;2.05;0.90;;;;;;;;;;4124801;28;20050;-59
2023/07/03 09:58:25;;;;;;;0.90;0.90;;;;;;;;;;4128451;28;20407;-59
2023/07/03 10:00:49;;;;;;;2.08;0.90;;;;;;;;;;4129445;28;20080;-59
2023/07/03 10:03:10;;;;;;;1.00;0.90;;;;;;;;;;4126126;28;20368;-58
2023/07/03 10:05:34;;;;;;;2.78;0.98;;;;;;;;;;4128683;28;20057;-58
2023/07/03 10:08:00;;;;;;;0.80;0.80;;;;;;;;;;4131991;28;20042;-58
2023/07/03 10:10:22;;;;;;;3.42;0.90;;;;;;;;;;4124526;28;20058;-59
2023/07/03 10:13:15;;;;;;;0.90;0.90;;;;;;;;;;4125499;28;20049;-59
2023/07/03 10:15:38;;;;;;;1.45;0.90;;;;;;;;;;4047294;29;20275;-58
2023/07/03 10:18:01;;;;;;;1.40;0.90;;;;;;;;;;4044244;29;20452;-58
2023/07/03 10:20:23;;;;;;;0.95;0.82;;;;;;;;;;4049928;29;20310;-58
2023/07/03 10:22:49;;;;;;;1.08;0.90;;;;;;;;;;4049320;29;20060;-58
2023/07/03 10:25:13;;;;;;;1.58;1.00;;;;;;;;;;4045623;29;20073;-58
2023/07/03 10:27:35;;;;;;;1.58;1.00;;;;;;;;;;4044707;29;20463;-58
2023/07/03 10:29:56;;;;;;;1.05;0.90;;;;;;;;;;4046215;29;20048;-57
2023/07/03 10:32:18;;;;;;;1.00;0.90;;;;;;;;;;4046058;29;20428;-58
2023/07/03 10:34:47;;;;;;;2.45;1.00;;;;;;;;;;4051546;29;20056;-59
2023/07/03 10:37:11;;;;;;;3.03;1.30;;;;;;;;;;4049927;29;20048;-58
2023/07/03 10:39:43;;;;;;;2.30;0.93;;;;;;;;;;4047503;29;20100;-59
2023/07/03 10:42:06;;;;;;;1.95;1.00;;;;;;;;;;4045267;29;20120;-58
2023/07/03 10:44:28;;;;;;;1.00;1.00;;;;;;;;;;4042410;29;20078;-58
2023/07/03 10:46:59;;;;;;;1.02;1.00;;;;;;;;;;4054158;29;20108;-59
2023/07/03 10:49:27;;;;;;;0.90;0.90;;;;;;;;;;4052337;29;20056;-58
2023/07/03 10:51:50;;;;;;;3.60;0.90;;;;;;;;;;4085955;28;20089;-58
2023/07/03 10:54:15;;;;;;;2.45;1.00;;;;;;;;;;4126554;28;20058;-59
2023/07/03 10:56:45;;;;;;;1.30;1.20;;;;;;;;;;4123147;28;20037;-58
2023/07/03 10:59:06;;;;;;;1.85;0.93;;;;;;;;;;4121283;28;20373;-58
2023/07/03 11:01:36;;;;;;;1.10;1.00;;;;;;;;;;4131106;28;20110;-59
2023/07/03 11:03:56;;;;;;;1.40;0.90;;;;;;;;;;4133402;28;20054;-59
2023/07/03 11:06:52;;;;;;;1.20;0.90;;;;;;;;;;4128571;28;20085;-58
2023/07/03 11:09:33;;;;;;;1.85;0.90;;;;;;;;;;4127037;28;20113;-59
2023/07/03 11:12:06;;;;;;;1.02;1.00;;;;;;;;;;4122016;28;20080;-59
2023/07/03 11:14:26;;;;;;;;;;;;;;;;;;4122677;28;20089;-58
2023/07/03 11:16:58;;;;;;;1.00;1.00;;;;;;;;;;4132541;28;20224;-58
2023/07/03 11:19:23;;;;;;;0.77;0.77;;;;;;;;;;4131811;28;20050;-59
2023/07/03 11:21:55;;;;;;;0.80;0.80;;;;;;;;;;4128729;28;20065;-58
2023/07/03 11:24:24;;;;;;;0.88;0.80;;;;;;;;;;4131174;28;20097;-59
2023/07/03 11:27:20;;;;;;;0.93;0.93;;;;;;;;;;4128960;28;20114;-58
2023/07/03 11:29:44;;;;;;;0.80;0.80;;;;;;;;;;4057289;29;20394;-58
2023/07/03 11:32:06;;;;;;;0.80;0.80;;;;;;;;;;4123254;28;20245;-59
2023/07/03 11:34:26;;;;;;;0.70;0.70;;;;;;;;;;4130752;28;20093;-58
2023/07/03 11:36:51;;;;;;;1.02;0.70;;;;;;;;;;4127661;28;20046;-58
2023/07/03 11:39:26;;;;;;;1.23;0.70;;;;;;;;;;4130867;28;20069;-59
2023/07/03 11:42:10;;;;;;;1.30;0.70;;;;;;;;;;4129977;28;20049;-59
2023/07/03 11:44:38;;;;;;;0.70;0.70;;;;;;;;;;4133574;28;20150;-59
2023/07/03 11:47:00;;;;;;;0.70;0.70;;;;;;;;;;4126255;28;20296;-58
2023/07/03 11:49:24;;;;;;;0.75;0.70;;;;;;;;;;4127131;28;20400;-58
2023/07/03 11:51:45;;;;;;;0.70;0.70;;;;;;;;;;4126964;28;20042;-59
2023/07/03 11:54:20;;;;;;;0.80;0.75;;;;;;;;;;4131905;28;20376;-59
2023/07/03 11:56:41;;;;;;;3.78;1.23;;;;;;;;;;4130635;28;20146;-58
2023/07/03 11:59:05;;;;;;;0.98;0.70;;;;;;;;;;4128652;28;20360;-59
2023/07/03 12:01:30;;;;;;;1.80;0.60;;;;;;;;;;4126020;28;20147;-58
2023/07/03 12:03:52;;;;;;;0.80;0.80;;;;;;;;;;4126113;28;20050;-59
2023/07/03 12:06:32;;;;;;;2.35;0.90;;;;;;;;;;4133720;28;20048;-58
2023/07/03 12:08:53;;;;;;;0.80;0.80;;;;;;;;;;4132335;28;20113;-59
2023/07/03 12:11:14;;;;;;;4.40;1.10;;;;;;;;;;4129028;28;20074;-58
2023/07/03 12:13:36;;;;;;;4.30;0.93;;;;;;;;;;4130302;28;20244;-58
2023/07/03 12:15:57;;;;;;;0.98;0.80;;;;;;;;;;4126415;28;20053;-60
2023/07/03 12:18:18;;;;;;;1.15;0.70;;;;;;;;;;4127445;28;20058;-59
2023/07/03 12:20:38;;;;;;;1.23;0.80;;;;;;;;;;4138466;28;20081;-59
2023/07/03 12:22:58;;;;;;;1.23;0.90;;;;;;;;;;4135350;28;20278;-59
2023/07/03 12:25:20;;;;;;;0.95;0.95;;;;;;;;;;4131181;28;20058;-59
2023/07/03 12:27:41;;;;;;;3.42;1.10;;;;;;;;;;4127088;28;20431;-59
2023/07/03 12:30:01;;;;;;;0.88;0.80;;;;;;;;;;4124165;28;20077;-58
2023/07/03 12:32:29;;;;;;;1.40;0.93;;;;;;;;;;4123318;28;20054;-59
2023/07/03 12:34:50;;;;;;;1.02;0.80;;;;;;;;;;4127971;28;20224;-59
2023/07/03 12:37:17;;;;;;;0.75;0.75;;;;;;;;;;4133659;28;20065;-59
2023/07/03 12:39:37;;;;;;;0.70;0.70;;;;;;;;;;4130341;28;20053;-58
2023/07/03 12:42:09;;;;;;;1.00;0.98;;;;;;;;;;4126630;28;20050;-58
2023/07/03 12:44:29;;;;;;;1.48;1.05;;;;;;;;;;4125370;28;20097;-58
2023/07/03 12:46:49;;;;;;;1.88;0.88;;;;;;;;;;4125882;28;20049;-58
2023/07/03 12:49:17;;;;;;;0.80;0.80;;;;;;;;;;4123144;28;20077;-57
2023/07/03 12:51:43;;;;;;;1.30;1.02;;;;;;;;;;4129879;28;20097;-58
2023/07/03 12:54:03;;;;;;;1.45;0.93;;;;;;;;;;4128084;28;20150;-59
2023/07/03 12:56:24;;;;;;;2.65;0.90;;;;;;;;;;4126462;28;20053;-58
2023/07/03 12:58:44;;;;;;;0.95;0.80;;;;;;;;;;4128342;28;20057;-58
2023/07/03 13:01:06;;;;;;;1.00;0.90;;;;;;;;;;4127306;28;20365;-58
2023/07/03 13:03:26;;;;;;;1.00;0.95;;;;;;;;;;4124875;28;20058;-58
2023/07/03 13:05:46;;;;;;;2.40;0.90;;;;;;;;;;4126123;28;20050;-58
2023/07/03 13:08:15;;;;;;;1.13;1.00;;;;;;;;;;4127474;28;20387;-58
2023/07/03 13:10:36;;;;;;;0.93;0.90;;;;;;;;;;4125446;28;20050;-58
2023/07/03 13:13:05;;;;;;;3.47;1.00;;;;;;;;;;4131447;28;20049;-58
2023/07/03 13:15:36;;;;;;;2.40;0.90;;;;;;;;;;4129524;28;20048;-58
2023/07/03 13:18:23;;;;;;;0.95;0.95;;;;;;;;;;4127939;28;20241;-58
2023/07/03 13:20:53;;;;;;;2.38;0.90;;;;;;;;;;4124886;28;20145;-57
2023/07/03 13:23:14;;;;;;;7.72;1.35;;;;;;;;;;4123775;28;20046;-58
2023/07/03 13:25:40;;;;;;;7.70;1.10;;;;;;;;;;4131660;28;20077;-58
2023/07/03 13:28:20;;;;;;;5.82;1.70;;;;;;;;;;4130121;28;20711;-59
2023/07/03 13:30:41;;;;;;;4.43;1.20;;;;;;;;;;4130382;28;20081;-58
2023/07/03 13:33:04;;;;;;;1.75;1.27;;;;;;;;;;4127708;28;20053;-58
2023/07/03 13:35:33;;;;;;;2.47;1.17;;;;;;;;;;4125698;28;20078;-58
2023/07/03 13:37:53;;;;;;;1.98;1.20;;;;;;;;;;4126029;28;20085;-59
2023/07/03 13:40:14;;;;;;;1.38;1.20;;;;;;;;;;4136748;28;20077;-58
2023/07/03 13:42:35;;;;;;;1.10;1.00;;;;;;;;;;4133218;28;20044;-58
2023/07/03 13:44:55;;;;;;;1.92;1.00;;;;;;;;;;4131121;28;20050;-58
2023/07/03 13:47:15;;;;;;;5.45;1.10;;;;;;;;;;4127896;28;20060;-57
2023/07/03 13:49:38;;;;;;;1.13;1.02;;;;;;;;;;4124195;28;20376;-58
2023/07/03 13:51:58;;;;;;;1.38;1.00;;;;;;;;;;4124660;28;20078;-58
2023/07/03 13:54:18;;;;;;;1.00;0.95;;;;;;;;;;4134763;28;20081;-58
2023/07/03 13:56:39;;;;;;;1.00;0.90;;;;;;;;;;4131221;28;20377;-58
2023/07/03 13:58:59;;;;;;;1.42;1.00;;;;;;;;;;4130793;28;20096;-57
2023/07/03 14:01:20;;;;;;;0.80;0.80;;;;;;;;;;4127198;28;20050;-58
2023/07/03 14:03:47;;;;;;;1.00;0.90;;;;;;;;;;4124344;28;20154;-58
2023/07/03 14:06:09;;;;;;;1.08;0.90;;;;;;;;;;4125214;28;20092;-59
2023/07/03 14:08:30;;;;;;;0.85;0.85;;;;;;;;;;4124830;28;20097;-58
2023/07/03 14:10:51;;;;;;;1.10;1.00;;;;;;;;;;4132447;28;20090;-58
2023/07/03 14:13:13;;;;;;;1.13;1.02;;;;;;;;;;4129327;28;20054;-58
2023/07/03 14:15:35;;;;;;;1.20;1.10;;;;;;;;;;4125574;28;20364;-59